Time;durP1;ratioP1;P1;durP2;ratioP2;P2;SDS_P1;SDS_P2;PMS_P1;PMS_P2;Temp;Humidity;BMP_temperature;BMP_pressure;BME280_temperature;BME280_humidity;BME280_pressure;Samples;Min_cycle;Max_cycle;Signal;HPM_P1;HPM_P2
2021/10/18 00:01:53;;;;;;;17.67;8.38;;;;;;;9.42;100.00;101462.19;4996256;28;20496;-78
2021/10/18 00:04:25;;;;;;;16.27;8.38;;;;;;;9.37;100.00;101473.72;4996015;28;20080;-81
2021/10/18 00:06:52;;;;;;;13.02;7.40;;;;;;;9.38;100.00;101469.31;4988244;28;20045;-81
2021/10/18 00:09:20;;;;;;;15.82;8.45;;;;;;;9.43;100.00;101471.75;5037934;28;20053;-81
2021/10/18 00:11:47;;;;;;;15.88;7.53;;;;;;;9.45;100.00;101475.16;5025238;28;20153;-80
2021/10/18 00:14:14;;;;;;;18.02;7.95;;;;;;;9.49;100.00;101474.97;5014279;28;20059;-85
2021/10/18 00:16:42;;;;;;;16.45;7.22;;;;;;;9.47;100.00;101474.19;4980066;28;20164;-80
2021/10/18 00:19:10;;;;;;;16.25;7.47;;;;;;;9.46;100.00;101480.38;4995988;28;20141;-85
2021/10/18 00:21:37;;;;;;;21.42;8.40;;;;;;;9.53;100.00;101484.47;5032936;28;20038;-81
2021/10/18 00:24:05;;;;;;;12.18;6.85;;;;;;;9.54;100.00;101478.28;4979100;28;20052;-84
2021/10/18 00:26:32;;;;;;;14.93;6.95;;;;;;;9.52;100.00;101480.13;4989810;28;20417;-79
2021/10/18 00:28:59;;;;;;;16.35;7.30;;;;;;;9.58;100.00;101485.13;5008036;28;20056;-82
2021/10/18 00:31:27;;;;;;;14.23;7.65;;;;;;;9.58;100.00;101485.13;5014125;28;20056;-79
2021/10/18 00:33:55;;;;;;;17.20;7.78;;;;;;;9.56;100.00;101483.50;5009289;28;20068;-78
2021/10/18 00:36:22;;;;;;;13.05;7.70;;;;;;;9.55;100.00;101482.63;4992061;28;20042;-79
2021/10/18 00:38:49;;;;;;;15.88;8.77;;;;;;;9.57;100.00;101482.56;4993300;28;20046;-83
2021/10/18 00:41:17;;;;;;;23.08;7.93;;;;;;;9.67;100.00;101490.91;4992505;28;20396;-77
2021/10/18 00:43:46;;;;;;;13.35;7.05;;;;;;;9.59;100.00;101494.75;5012639;28;20073;-76
2021/10/18 00:46:14;;;;;;;12.45;7.10;;;;;;;9.64;100.00;101484.88;4995392;28;20041;-78
2021/10/18 00:48:41;;;;;;;13.10;8.18;;;;;;;9.65;100.00;101501.50;4996003;28;20037;-79
2021/10/18 00:51:10;;;;;;;17.17;8.00;;;;;;;9.67;100.00;101490.91;4995368;28;20049;-82
2021/10/18 00:53:37;;;;;;;12.82;7.43;;;;;;;9.84;100.00;101488.44;4998333;28;20428;-78
2021/10/18 00:56:04;;;;;;;16.85;7.95;;;;;;;9.69;100.00;101481.22;5015110;28;20063;-82
2021/10/18 00:58:31;;;;;;;13.15;8.00;;;;;;;9.64;100.00;101482.25;5012007;28;20084;-79
2021/10/18 01:00:58;;;;;;;16.40;7.53;;;;;;;9.47;100.00;101476.84;4979220;28;20139;-82
2021/10/18 01:03:26;;;;;;;15.57;8.48;;;;;;;9.54;100.00;101477.41;4994732;28;20057;-79
2021/10/18 01:05:53;;;;;;;17.88;9.40;;;;;;;9.51;100.00;101473.16;4997880;28;20041;-83
2021/10/18 01:08:21;;;;;;;13.07;8.77;;;;;;;9.43;100.00;101474.38;5012091;28;20560;-80
2021/10/18 01:10:48;;;;;;;16.77;9.10;;;;;;;9.39;100.00;101476.28;4993974;28;20037;-83
2021/10/18 01:13:15;;;;;;;14.68;9.02;;;;;;;9.57;100.00;101470.28;5012164;28;20551;-79
2021/10/18 01:15:42;;;;;;;17.70;7.97;;;;;;;9.59;100.00;101464.94;5011672;28;20045;-79
2021/10/18 01:18:09;;;;;;;18.05;8.20;;;;;;;9.57;100.00;101464.16;4996467;28;20496;-84
2021/10/18 01:20:38;;;;;;;13.75;8.23;;;;;;;9.57;100.00;101474.69;5026946;28;20041;-81
2021/10/18 01:23:07;;;;;;;20.88;7.78;;;;;;;9.48;100.00;101468.03;5017761;28;20045;-83
2021/10/18 01:25:36;;;;;;;14.25;8.52;;;;;;;9.34;100.00;101473.84;5010770;28;20056;-80
2021/10/18 01:28:03;;;;;;;17.17;8.77;;;;;;;9.38;100.00;101478.06;5000761;28;20054;-85
2021/10/18 01:30:31;;;;;;;18.92;9.35;;;;;;;9.45;100.00;101476.03;5009925;28;20560;-79
2021/10/18 01:32:59;;;;;;;22.35;9.15;;;;;;;9.44;100.00;101486.59;5010020;28;20218;-80
2021/10/18 01:35:26;;;;;;;18.98;8.43;;;;;;;9.39;100.00;101486.78;4993439;28;20401;-77
2021/10/18 01:37:53;;;;;;;13.88;7.55;;;;;;;9.58;100.00;101492.16;5012855;28;20128;-79
2021/10/18 01:40:24;;;;;;;15.43;8.07;;;;;;;9.51;100.00;101488.09;5007675;28;20049;-80
2021/10/18 01:42:52;;;;;;;15.32;8.60;;;;;;;9.50;100.00;101483.72;5005434;28;20067;-77
2021/10/18 01:45:21;;;;;;;16.80;8.93;;;;;;;9.56;100.00;101481.72;4990303;28;20046;-85
2021/10/18 01:47:48;;;;;;;14.23;8.90;;;;;;;9.67;100.00;101483.88;5008015;28;20059;-82
2021/10/18 01:50:19;;;;;;;19.88;9.30;;;;;;;9.83;100.00;101479.72;4973187;28;20057;-78
2021/10/18 01:52:48;;;;;;;18.50;9.85;;;;;;;9.82;100.00;101479.78;5015084;28;20068;-78
2021/10/18 01:55:15;;;;;;;21.88;11.00;;;;;;;9.73;100.00;101475.75;4994763;28;20447;-77
2021/10/18 01:57:43;;;;;;;21.45;12.02;;;;;;;9.75;100.00;101476.53;4996816;28;20119;-76
2021/10/18 02:00:11;;;;;;;18.30;10.73;;;;;;;9.85;100.00;101479.63;5009810;28;20057;-83
2021/10/18 02:02:38;;;;;;;19.88;11.20;;;;;;;9.67;100.00;101477.78;5009015;28;20057;-81
2021/10/18 02:05:06;;;;;;;19.25;11.20;;;;;;;9.51;100.00;101475.78;4998997;28;20460;-79
2021/10/18 02:07:33;;;;;;;21.17;10.77;;;;;;;9.59;100.00;101481.59;5016059;28;20408;-81
2021/10/18 02:10:01;;;;;;;23.40;11.20;;;;;;;9.64;100.00;101476.16;5000790;28;20092;-78
2021/10/18 02:12:28;;;;;;;15.65;9.93;;;;;;;9.64;100.00;101479.63;5013771;28;20050;-79
2021/10/18 02:14:55;;;;;;;17.25;9.82;;;;;;;9.77;100.00;101473.84;4979463;28;20056;-87
2021/10/18 02:17:22;;;;;;;18.63;10.35;;;;;;;9.72;100.00;101474.03;5013049;28;20053;-78
2021/10/18 02:19:50;;;;;;;15.23;9.73;;;;;;;9.55;100.00;101474.75;5011998;28;20053;-82
2021/10/18 02:22:17;;;;;;;15.05;9.23;;;;;;;9.83;100.00;101473.59;5014978;28;20577;-77
2021/10/18 02:24:44;;;;;;;18.65;9.32;;;;;;;9.66;100.00;101471.66;5008614;28;20053;-81
2021/10/18 02:27:11;;;;;;;16.15;9.23;;;;;;;9.56;100.00;101471.19;4998959;28;20046;-76
2021/10/18 02:29:38;;;;;;;17.65;9.25;;;;;;;9.52;100.00;101474.00;5006081;28;20038;-80
2021/10/18 02:32:05;;;;;;;14.82;9.02;;;;;;;9.49;100.00;101469.72;5012291;28;20497;-78
2021/10/18 02:34:33;;;;;;;15.60;8.98;;;;;;;9.61;100.00;101479.75;5024751;28;20064;-78
2021/10/18 02:37:00;;;;;;;17.42;9.55;;;;;;;9.60;100.00;101482.44;5011882;28;20413;-81
2021/10/18 02:39:27;;;;;;;19.85;9.15;;;;;;;9.72;100.00;101486.31;5014170;28;20045;-78
2021/10/18 02:41:54;;;;;;;19.02;8.95;;;;;;;9.78;100.00;101486.09;4996616;28;20057;-79
2021/10/18 02:44:21;;;;;;;14.02;7.88;;;;;;;9.75;100.00;101475.69;4991749;28;20084;-80
2021/10/18 02:46:48;;;;;;;18.08;7.85;;;;;;;9.79;100.00;101478.13;5012713;28;20045;-81
2021/10/18 02:49:16;;;;;;;15.77;7.18;;;;;;;9.80;100.00;101484.22;5022334;28;20402;-77
2021/10/18 02:51:44;;;;;;;16.15;7.38;;;;;;;9.75;100.00;101478.31;4994496;28;20052;-77
2021/10/18 02:54:11;;;;;;;15.98;6.85;;;;;;;9.85;100.00;101474.38;5008460;28;20407;-85
2021/10/18 02:56:38;;;;;;;12.20;6.28;;;;;;;9.99;100.00;101463.25;5012762;28;20069;-84
2021/10/18 02:59:05;;;;;;;14.45;7.13;;;;;;;9.87;100.00;101462.03;5007407;28;20049;-82
2021/10/18 03:01:32;;;;;;;13.45;5.63;;;;;;;9.98;100.00;101461.56;5011207;28;20062;-79
2021/10/18 03:04:00;;;;;;;12.80;6.90;;;;;;;9.71;100.00;101472.31;5009143;28;20053;-82
2021/10/18 03:06:27;;;;;;;10.98;5.80;;;;;;;9.60;100.00;101477.19;5010502;28;20060;-81
2021/10/18 03:08:54;;;;;;;19.10;5.90;;;;;;;9.56;100.00;101484.34;4994110;28;20045;-77
2021/10/18 03:11:21;;;;;;;10.55;5.20;;;;;;;9.52;100.00;101485.38;4981077;28;20048;-78
2021/10/18 03:13:48;;;;;;;9.85;5.03;;;;;;;9.55;100.00;101487.91;4992710;28;20060;-80
2021/10/18 03:16:16;;;;;;;9.70;5.18;;;;;;;9.59;100.00;101491.22;4992604;28;20048;-79
2021/10/18 03:18:43;;;;;;;14.45;5.82;;;;;;;9.88;100.00;101490.03;5028839;28;20063;-77
2021/10/18 03:21:10;;;;;;;12.20;4.82;;;;;;;9.84;100.00;101484.03;5009068;28;20054;-76
2021/10/18 03:23:37;;;;;;;14.02;5.25;;;;;;;9.87;100.00;101485.69;5023460;28;20056;-78
2021/10/18 03:26:04;;;;;;;9.73;4.70;;;;;;;9.93;100.00;101484.56;5009608;28;20080;-77
2021/10/18 03:28:32;;;;;;;15.68;5.90;;;;;;;9.85;100.00;101482.25;5009983;28;20140;-77
2021/10/18 03:30:59;;;;;;;13.15;4.80;;;;;;;9.69;100.00;101481.22;4977043;28;20139;-79
2021/10/18 03:33:36;;;;;;;11.90;5.65;;;;;;;9.79;100.00;101482.53;5001913;28;20073;-78
2021/10/18 03:36:04;;;;;;;12.73;5.22;;;;;;;9.69;100.00;101481.22;4974401;28;20123;-78
2021/10/18 03:38:31;;;;;;;12.23;5.18;;;;;;;9.70;100.00;101483.78;4993873;28;20048;-82
2021/10/18 03:40:59;;;;;;;13.23;4.90;;;;;;;9.90;100.00;101483.78;5009919;28;20124;-78
2021/10/18 03:43:26;;;;;;;12.88;5.22;;;;;;;9.85;100.00;101484.91;5019186;28;20061;-78
2021/10/18 03:45:53;;;;;;;16.33;5.63;;;;;;;9.71;100.00;101490.72;4986911;28;20045;-81
2021/10/18 03:48:21;;;;;;;11.25;4.93;;;;;;;9.73;100.00;101503.84;5012562;28;20053;-85
2021/10/18 03:50:48;;;;;;;11.43;5.75;;;;;;;9.69;100.00;101492.59;4993771;28;20488;-78
2021/10/18 03:53:15;;;;;;;12.75;5.50;;;;;;;9.84;100.00;101493.72;4992085;28;20053;-80
2021/10/18 03:55:42;;;;;;;10.55;4.60;;;;;;;9.95;100.00;101488.88;5009860;28;20117;-78
2021/10/18 03:58:09;;;;;;;8.73;5.32;;;;;;;9.95;100.00;101493.25;5011984;28;20389;-83
2021/10/18 04:00:37;;;;;;;7.97;4.75;;;;;;;10.03;100.00;101499.91;5000605;28;20067;-79
2021/10/18 04:03:04;;;;;;;29.13;15.23;;;;;;;9.85;100.00;101501.53;4993715;28;20049;-81
2021/10/18 04:05:31;;;;;;;8.45;5.22;;;;;;;9.60;100.00;101501.69;5007893;28;20057;-78
2021/10/18 04:07:58;;;;;;;10.70;5.45;;;;;;;9.68;100.00;101504.03;5006469;28;20421;-79
2021/10/18 04:10:26;;;;;;;13.70;6.55;;;;;;;9.64;100.00;101505.06;5009779;28;20148;-80
2021/10/18 04:12:53;;;;;;;10.52;5.57;;;;;;;9.50;100.00;101504.75;4995173;28;20045;-83
2021/10/18 04:15:20;;;;;;;10.27;4.57;;;;;;;9.61;100.00;101503.41;4988189;28;20416;-82
2021/10/18 04:17:47;;;;;;;15.40;5.97;;;;;;;9.64;100.00;101510.31;5021460;28;20051;-81
2021/10/18 04:20:14;;;;;;;9.15;5.15;;;;;;;9.50;100.00;101507.38;5014590;28;20121;-78
2021/10/18 04:22:46;;;;;;;11.93;4.60;;;;;;;9.61;100.00;101507.81;4999331;28;20055;-79
2021/10/18 04:25:14;;;;;;;9.90;5.07;;;;;;;9.71;100.00;101503.88;4991042;28;20317;-86
2021/10/18 04:27:42;;;;;;;8.65;5.40;;;;;;;9.55;100.00;101503.66;5015743;28;20060;-78
2021/10/18 04:30:09;;;;;;;10.35;4.93;;;;;;;9.75;100.00;101507.25;4994891;28;20049;-79
2021/10/18 04:32:37;;;;;;;11.48;6.07;;;;;;;9.76;100.00;101498.44;5026002;28;20049;-81
2021/10/18 04:35:04;;;;;;;11.48;5.50;;;;;;;9.67;100.00;101509.31;5015603;28;20053;-77
2021/10/18 04:37:31;;;;;;;14.30;5.68;;;;;;;9.49;100.00;101509.16;4999073;28;20068;-81
2021/10/18 04:39:58;;;;;;;9.35;4.95;;;;;;;9.48;100.00;101510.06;5037988;28;20052;-78
2021/10/18 04:42:26;;;;;;;9.13;4.05;;;;;;;9.73;100.00;101503.84;4996215;28;20069;-81
2021/10/18 04:44:53;;;;;;;8.73;4.72;;;;;;;9.90;100.00;101507.44;5006455;28;20048;-77
2021/10/18 04:47:20;;;;;;;7.13;4.22;;;;;;;9.78;100.00;101510.59;5003195;28;20048;-79
2021/10/18 04:49:48;;;;;;;8.63;5.00;;;;;;;9.84;100.00;101507.72;5036675;28;20510;-78
2021/10/18 04:52:15;;;;;;;12.38;5.78;;;;;;;9.60;100.00;101517.47;5002516;28;20053;-80
2021/10/18 04:54:42;;;;;;;10.35;5.10;;;;;;;9.55;100.00;101519.44;5006582;28;20046;-82
2021/10/18 04:57:09;;;;;;;7.82;5.13;;;;;;;9.62;100.00;101523.50;5023585;28;20057;-77
2021/10/18 04:59:36;;;;;;;9.13;4.50;;;;;;;9.69;100.00;101520.66;5011903;28;20048;-82
2021/10/18 05:02:03;;;;;;;11.30;5.10;;;;;;;9.39;100.00;101523.59;4998744;28;20141;-82
2021/10/18 05:05:24;;;;;;;9.00;4.55;;;;;;;9.26;100.00;101530.22;4994896;28;20062;-78
2021/10/18 05:08:02;;;;;;;10.48;4.82;;;;;;;9.43;100.00;101527.81;5010802;28;20060;-83
2021/10/18 05:10:30;;;;;;;10.95;6.55;;;;;;;9.57;100.00;101530.72;5013634;28;20069;-81
2021/10/18 05:12:58;;;;;;;10.02;5.63;;;;;;;9.66;100.00;101532.13;5003249;28;20056;-80
2021/10/18 05:15:26;;;;;;;11.43;4.57;;;;;;;9.59;100.00;101536.81;5000164;28;20408;-80
2021/10/18 05:17:54;;;;;;;10.65;4.60;;;;;;;9.50;100.00;101539.81;5015537;28;20267;-79
2021/10/18 05:20:22;;;;;;;17.80;4.90;;;;;;;9.32;100.00;101541.38;4989015;28;20400;-79
2021/10/18 05:22:49;;;;;;;16.63;5.03;;;;;;;9.36;100.00;101542.94;5007113;28;20045;-81
2021/10/18 05:25:16;;;;;;;9.90;5.05;;;;;;;9.39;100.00;101548.09;5006219;28;20054;-78
2021/10/18 05:27:43;;;;;;;10.50;5.35;;;;;;;9.35;100.00;101545.66;5013835;28;20166;-79
2021/10/18 05:30:12;;;;;;;13.18;5.55;;;;;;;9.34;100.00;101546.56;5004618;28;20100;-81
2021/10/18 05:32:40;;;;;;;8.02;5.07;;;;;;;9.15;100.00;101548.19;5017792;28;20075;-84
2021/10/18 05:35:07;;;;;;;14.00;5.03;;;;;;;9.06;100.00;101550.25;4976152;28;20068;-83
2021/10/18 05:37:43;;;;;;;10.45;5.18;;;;;;;9.00;100.00;101558.34;4997421;28;20049;-80
2021/10/18 05:40:12;;;;;;;13.32;6.03;;;;;;;8.73;100.00;101556.75;5025603;28;20404;-79
2021/10/18 05:42:39;;;;;;;10.02;5.40;;;;;;;8.79;100.00;101560.00;4989925;28;20045;-86
2021/10/18 05:45:08;;;;;;;8.20;5.28;;;;;;;8.96;100.00;101558.50;5009452;28;20056;-79
2021/10/18 05:48:12;;;;;;;9.02;4.88;;;;;;;9.10;100.00;101556.25;4998428;28;20037;-80
2021/10/18 05:50:43;;;;;;;9.88;4.60;;;;;;;9.13;100.00;101554.34;4932973;28;20044;-83
2021/10/18 05:53:12;;;;;;;9.38;5.05;;;;;;;9.01;100.00;101564.47;4983376;28;20587;-78
2021/10/18 05:55:39;;;;;;;7.03;3.92;;;;;;;9.05;100.00;101564.31;4991362;28;20041;-78
2021/10/18 05:58:08;;;;;;;7.88;4.32;;;;;;;8.98;100.00;101562.81;5015089;28;20049;-84
2021/10/18 06:00:41;;;;;;;9.60;4.20;;;;;;;8.85;100.00;101570.28;5013139;28;20508;-78
2021/10/18 06:03:09;;;;;;;7.68;4.60;;;;;;;8.65;100.00;101575.41;5012397;28;20049;-81
2021/10/18 06:05:46;;;;;;;9.40;4.68;;;;;;;8.57;100.00;101578.31;4995475;28;20049;-79
2021/10/18 06:08:34;;;;;;;10.35;4.93;;;;;;;8.95;100.00;101578.66;5014412;28;20088;-80
2021/10/18 06:11:05;;;;;;;11.27;4.75;;;;;;;9.21;100.00;101582.09;4977714;28;20054;-78
2021/10/18 06:13:33;;;;;;;6.93;4.40;;;;;;;9.22;100.00;101586.44;5008732;28;20061;-79
2021/10/18 06:16:00;;;;;;;8.98;4.75;;;;;;;9.48;100.00;101581.03;4977761;28;20387;-77
2021/10/18 06:18:28;;;;;;;8.10;4.25;;;;;;;9.59;100.00;101578.88;5028631;28;20053;-81
2021/10/18 06:20:56;;;;;;;9.75;4.93;;;;;;;9.88;100.00;101580.31;4999634;28;20130;-85
2021/10/18 06:23:24;;;;;;;10.35;5.20;;;;;;;10.06;100.00;101591.84;5002840;28;20111;-79
2021/10/18 06:25:52;;;;;;;9.18;4.90;;;;;;;10.21;99.12;101590.34;4994043;28;20042;-77
2021/10/18 06:28:19;;;;;;;15.23;5.43;;;;;;;10.49;97.92;101590.09;4997413;28;20147;-78
2021/10/18 06:30:48;;;;;;;11.48;3.90;;;;;;;10.65;93.80;101585.84;5031808;28;20049;-76
2021/10/18 06:33:20;;;;;;;9.40;4.28;;;;;;;10.79;92.73;101585.25;4995455;28;20669;-78
2021/10/18 06:35:48;;;;;;;7.00;3.70;;;;;;;10.77;91.49;101579.19;4991405;28;20041;-80
2021/10/18 06:38:17;;;;;;;8.88;4.07;;;;;;;10.84;91.13;101577.13;5024560;28;20128;-82
2021/10/18 06:40:45;;;;;;;9.00;3.97;;;;;;;10.93;90.37;101583.75;5004547;28;20433;-81
2021/10/18 06:43:13;;;;;;;10.40;5.57;;;;;;;10.89;91.98;101588.31;4992525;28;20041;-88
2021/10/18 06:45:41;;;;;;;14.13;6.25;;;;;;;10.78;93.49;101593.22;5009748;28;20505;-79
2021/10/18 06:48:08;;;;;;;14.30;4.82;;;;;;;10.66;92.93;101599.88;4999396;28;20050;-78
2021/10/18 06:50:38;;;;;;;12.32;5.00;;;;;;;10.63;92.25;101605.28;5029918;28;20053;-79
2021/10/18 06:53:11;;;;;;;9.05;4.28;;;;;;;10.71;92.87;101608.41;5022682;28;20064;-84
2021/10/18 06:55:38;;;;;;;6.22;4.45;;;;;;;10.95;91.68;101614.41;5025555;28;20037;-77
2021/10/18 06:58:06;;;;;;;8.27;4.28;;;;;;;10.93;93.07;101608.31;5020473;28;20158;-83
2021/10/18 07:00:33;;;;;;;12.07;5.30;;;;;;;11.00;93.79;101612.41;5020559;28;20045;-85
2021/10/18 07:03:01;;;;;;;14.52;5.55;;;;;;;11.19;92.19;101611.56;5020556;28;20141;-82
2021/10/18 07:05:29;;;;;;;14.27;4.55;;;;;;;11.33;88.44;101603.88;5000861;28;20136;-78
2021/10/18 07:07:57;;;;;;;11.90;4.63;;;;;;;11.69;86.70;101609.19;4990851;28;20053;-80
2021/10/18 07:10:24;;;;;;;10.57;4.57;;;;;;;11.82;83.76;101606.84;5014857;28;20080;-79
2021/10/18 07:12:51;;;;;;;5.88;3.45;;;;;;;11.88;83.29;101610.03;5017928;28;20041;-84
2021/10/18 07:15:19;;;;;;;10.48;4.35;;;;;;;12.01;82.96;101617.38;4980095;28;20437;-83
2021/10/18 07:17:46;;;;;;;11.43;4.47;;;;;;;12.35;82.15;101619.22;5025248;28;20049;-81
2021/10/18 07:25:01;;;;;;;7.80;3.97;;;;;;;12.96;80.38;101626.59;4920210;29;20046;-83
2021/10/18 07:27:28;;;;;;;10.57;4.45;;;;;;;13.14;79.47;101630.88;4924138;28;20082;-79
2021/10/18 07:29:56;;;;;;;14.07;4.15;;;;;;;13.82;76.96;101630.72;5030247;28;20033;-79
2021/10/18 07:32:24;;;;;;;13.63;4.85;;;;;;;15.06;70.48;101626.06;5016405;28;20053;-82
2021/10/18 07:34:51;;;;;;;6.35;3.78;;;;;;;15.59;66.84;101637.75;5013062;28;20053;-78
2021/10/18 07:37:25;;;;;;;11.05;4.00;;;;;;;15.28;66.50;101640.66;4983987;28;20073;-79
2021/10/18 07:39:52;;;;;;;13.77;3.88;;;;;;;15.10;67.08;101637.34;5029083;28;20057;-79
2021/10/18 07:42:20;;;;;;;11.05;3.72;;;;;;;15.02;67.36;101643.09;5034127;28;20124;-78
2021/10/18 07:44:47;;;;;;;8.77;3.17;;;;;;;14.99;65.40;101645.94;5013909;28;20544;-77
2021/10/18 07:47:14;;;;;;;8.05;3.30;;;;;;;14.97;65.95;101639.88;4990670;28;20049;-78
2021/10/18 07:49:42;;;;;;;10.77;3.75;;;;;;;14.64;66.54;101648.09;4996260;28;20038;-80
2021/10/18 07:52:12;;;;;;;16.25;3.97;;;;;;;14.08;69.37;101646.91;5016254;28;20043;-83
2021/10/18 07:54:40;;;;;;;7.65;3.00;;;;;;;14.02;68.81;101650.78;5010611;28;20053;-83
2021/10/18 07:57:08;;;;;;;8.82;3.10;;;;;;;13.89;69.00;101652.41;4999126;28;20049;-78
2021/10/18 07:59:35;;;;;;;7.97;3.15;;;;;;;13.61;70.01;101643.38;5016226;28;20417;-79
2021/10/18 08:02:02;;;;;;;9.90;3.35;;;;;;;13.43;70.13;101650.53;5000162;28;20049;-80
2021/10/18 08:04:29;;;;;;;8.57;3.42;;;;;;;13.25;70.64;101648.03;5036781;28;20056;-80
2021/10/18 08:06:57;;;;;;;8.10;3.17;;;;;;;13.21;71.21;101657.03;4999579;28;20053;-79
2021/10/18 08:09:25;;;;;;;7.50;3.58;;;;;;;13.32;72.26;101665.25;4994712;28;20068;-80
2021/10/18 08:11:54;;;;;;;9.25;3.00;;;;;;;13.44;71.96;101656.66;4993659;28;20489;-79
2021/10/18 08:14:21;;;;;;;7.93;3.63;;;;;;;13.42;70.53;101654.09;4990938;28;20539;-79
2021/10/18 08:16:49;;;;;;;11.82;4.47;;;;;;;13.70;69.16;101657.03;5011659;28;20054;-81
2021/10/18 08:19:16;;;;;;;10.98;3.60;;;;;;;13.79;69.21;101654.72;4991368;28;20504;-80
2021/10/18 08:21:44;;;;;;;7.85;3.17;;;;;;;13.92;67.51;101658.38;5021771;28;20065;-80
2021/10/18 08:24:11;;;;;;;10.88;3.38;;;;;;;14.18;67.13;101666.63;4989326;28;20045;-84
2021/10/18 08:26:38;;;;;;;9.43;3.33;;;;;;;14.13;66.34;101661.59;4995041;28;20053;-78
2021/10/18 08:29:05;;;;;;;9.05;3.40;;;;;;;14.09;65.74;101662.69;4991937;28;20045;-83
2021/10/18 08:31:32;;;;;;;8.52;2.83;;;;;;;14.18;66.33;101659.56;4994364;28;20531;-81
2021/10/18 08:34:00;;;;;;;9.70;2.85;;;;;;;14.30;66.51;101657.13;5009505;28;20499;-82
2021/10/18 08:36:27;;;;;;;8.82;3.38;;;;;;;14.19;65.80;101658.59;5010140;28;20060;-80
2021/10/18 08:39:55;;;;;;;6.70;2.95;;;;;;;14.37;66.34;101655.84;4983256;28;20449;-79
2021/10/18 08:41:55;;;;;;;7.85;3.05;;;;;;;14.51;66.46;101652.41;5013044;28;20119;-78
2021/10/18 08:44:23;;;;;;;11.02;3.42;;;;;;;14.53;65.62;101656.66;5022453;28;20151;-81
2021/10/18 08:46:53;;;;;;;10.18;3.15;;;;;;;14.48;66.96;101648.13;5011433;28;20050;-79
2021/10/18 08:49:21;;;;;;;7.47;3.45;;;;;;;14.34;68.25;101656.00;4972958;28;20057;-84
2021/10/18 08:51:48;;;;;;;6.82;3.65;;;;;;;14.42;66.21;101656.41;4993512;28;20113;-79
2021/10/18 08:54:16;;;;;;;8.27;3.13;;;;;;;14.60;65.36;101652.72;4988826;28;20479;-80
2021/10/18 08:56:53;;;;;;;8.13;3.03;;;;;;;14.83;64.68;101650.47;5012661;28;20516;-79
2021/10/18 08:59:23;;;;;;;10.50;3.05;;;;;;;14.76;64.80;101651.78;4999007;28;20243;-77
2021/10/18 09:01:56;;;;;;;15.55;3.55;;;;;;;14.60;65.48;101649.22;5010493;28;20056;-81
2021/10/18 09:04:29;;;;;;;9.35;3.60;;;;;;;15.02;63.92;101651.06;5012798;28;21572;-81
2021/10/18 09:07:01;;;;;;;10.90;3.70;;;;;;;15.15;63.88;101645.88;5015299;28;20053;-83
2021/10/18 09:09:44;;;;;;;9.93;3.40;;;;;;;15.25;63.82;101656.75;5012085;28;20041;-77
2021/10/18 09:12:24;;;;;;;11.85;3.85;;;;;;;15.00;62.98;101657.44;5014247;28;20140;-79
2021/10/18 09:14:52;;;;;;;8.93;3.15;;;;;;;15.14;62.68;101655.63;5002815;28;20516;-78
2021/10/18 09:17:32;;;;;;;9.25;3.25;;;;;;;15.70;61.51;101663.66;5015084;28;20140;-79
2021/10/18 09:20:32;;;;;;;10.07;3.20;;;;;;;15.75;61.48;101668.66;5002735;28;20064;-79
2021/10/18 09:23:40;;;;;;;15.98;3.67;;;;;;;15.81;61.11;101670.94;4994075;28;20061;-85
2021/10/18 09:26:12;;;;;;;10.45;3.10;;;;;;;15.75;61.34;101677.47;5013921;28;20053;-80
2021/10/18 09:28:40;;;;;;;12.68;3.72;;;;;;;15.74;60.63;101672.28;4990967;28;20049;-78
2021/10/18 09:31:17;;;;;;;9.02;3.67;;;;;;;15.31;62.22;101670.50;5010246;28;20045;-79
2021/10/18 09:33:54;;;;;;;6.88;3.28;;;;;;;15.82;60.68;101665.53;5011988;28;20041;-78
2021/10/18 09:36:28;;;;;;;9.18;3.03;;;;;;;16.17;58.65;101667.69;4994517;28;20054;-78
2021/10/18 09:39:28;;;;;;;7.00;2.80;;;;;;;16.59;57.60;101668.44;5022673;28;20045;-85
2021/10/18 09:42:02;;;;;;;7.00;2.67;;;;;;;16.75;57.47;101663.81;5004368;28;20042;-83
2021/10/18 10:57:01;;;;;;;10.60;2.55;;;;;;;15.27;58.64;101668.97;5013622;28;20030;-78
2021/10/18 10:59:30;;;;;;;9.88;2.97;;;;;;;15.19;58.62;101666.78;5007629;28;21196;-83
2021/10/18 11:02:11;;;;;;;7.20;2.80;;;;;;;14.88;59.71;101675.75;4999240;28;20504;-79
2021/10/18 11:04:40;;;;;;;9.02;2.67;;;;;;;15.10;59.84;101663.88;5025996;28;20146;-80
2021/10/18 11:07:14;;;;;;;6.40;2.38;;;;;;;14.89;59.52;101669.50;5015530;28;20045;-79
2021/10/18 11:09:50;;;;;;;7.43;2.70;;;;;;;14.73;60.19;101665.25;4998198;28;20045;-80
2021/10/18 11:12:17;;;;;;;3.83;2.20;;;;;;;14.50;59.74;101669.22;5012995;28;20057;-81
2021/10/18 11:15:10;;;;;;;7.90;2.80;;;;;;;14.39;59.99;101670.69;5009305;28;20120;-78
2021/10/18 11:17:48;;;;;;;10.57;3.17;;;;;;;14.45;60.16;101666.81;5017280;28;20057;-80
2021/10/18 11:20:17;;;;;;;5.97;2.63;;;;;;;14.29;61.19;101658.94;4998051;28;20059;-77
2021/10/18 11:22:47;;;;;;;6.50;2.78;;;;;;;14.48;60.80;101661.38;4981005;28;20049;-83
2021/10/18 11:25:19;;;;;;;13.00;3.17;;;;;;;14.62;60.61;101669.38;5029938;28;20060;-80
2021/10/18 11:27:58;;;;;;;6.10;2.22;;;;;;;14.82;61.13;101654.09;5015743;28;20049;-80
2021/10/18 11:30:28;;;;;;;5.95;2.35;;;;;;;14.92;60.05;101661.38;4992328;28;20057;-79
2021/10/18 11:32:56;;;;;;;5.30;2.25;;;;;;;15.10;61.64;101656.75;4998059;28;20054;-79
2021/10/18 11:35:24;;;;;;;8.18;2.67;;;;;;;14.87;58.94;101654.66;5010971;28;20089;-79
2021/10/18 11:37:58;;;;;;;8.05;2.53;;;;;;;14.73;58.80;101657.28;4993499;28;20053;-81
2021/10/18 11:40:29;;;;;;;7.80;2.60;;;;;;;14.80;57.12;101655.97;5008902;28;20053;-79
2021/10/18 11:43:04;;;;;;;11.15;2.60;;;;;;;14.76;58.51;101654.44;5004220;28;20597;-78
2021/10/18 11:45:33;;;;;;;7.03;2.92;;;;;;;14.75;59.00;101655.38;4992824;28;20045;-84
2021/10/18 11:48:07;;;;;;;8.05;2.38;;;;;;;14.94;58.22;101648.03;4996062;28;20056;-85
2021/10/18 11:50:36;;;;;;;15.50;3.53;;;;;;;14.84;58.25;101650.38;5028863;28;20045;-83
2021/10/18 11:53:09;;;;;;;14.40;2.50;;;;;;;14.93;57.81;101649.81;4995699;28;20659;-85
2021/10/18 11:55:42;;;;;;;9.10;2.63;;;;;;;15.04;58.10;101649.19;5025978;28;20049;-80
2021/10/18 11:58:10;;;;;;;14.13;2.30;;;;;;;15.25;57.40;101648.78;5010806;28;20056;-82
2021/10/18 12:00:43;;;;;;;10.00;2.47;;;;;;;15.42;56.41;101644.13;5008730;28;20041;-79
2021/10/18 12:03:16;;;;;;;12.75;2.22;;;;;;;15.65;55.77;101655.13;5012545;28;20492;-78
2021/10/18 12:05:49;;;;;;;7.32;1.80;;;;;;;15.70;54.48;101643.25;4985553;28;20046;-79
2021/10/18 12:08:22;;;;;;;5.13;2.08;;;;;;;15.62;55.88;101649.97;5009375;28;20045;-84
2021/10/18 12:10:50;;;;;;;8.05;2.50;;;;;;;15.65;55.93;101649.81;5028130;28;20045;-82
2021/10/18 12:13:28;;;;;;;6.72;1.88;;;;;;;15.53;55.39;101647.91;4991496;28;20212;-85
2021/10/18 12:16:08;;;;;;;15.55;3.05;;;;;;;15.36;53.84;101643.69;5009962;28;20481;-81
2021/10/18 12:18:46;;;;;;;5.03;2.38;;;;;;;15.56;54.85;101634.44;4995662;28;20414;-82
2021/10/18 12:21:26;;;;;;;3.08;1.38;;;;;;;15.83;53.59;101645.13;4993304;28;20115;-79
2021/10/18 12:23:54;;;;;;;5.82;1.50;;;;;;;15.98;52.97;101645.94;5000283;28;20061;-79
2021/10/18 12:26:24;;;;;;;5.20;2.00;;;;;;;16.03;53.22;101639.38;5025913;28;20049;-78
2021/10/18 12:29:04;;;;;;;3.20;1.73;;;;;;;15.88;53.71;101633.25;5009237;28;20058;-79
2021/10/18 12:31:42;;;;;;;5.03;1.85;;;;;;;16.13;52.79;101632.50;4993520;28;20049;-78
2021/10/18 12:34:23;;;;;;;6.20;1.70;;;;;;;16.16;52.83;101620.81;4992426;28;20057;-84
2021/10/18 12:36:52;;;;;;;3.53;1.50;;;;;;;16.08;52.57;101621.34;5024564;28;20089;-77
2021/10/18 12:39:39;;;;;;;5.93;2.78;;;;;;;16.05;52.73;101616.22;5032151;28;20564;-79
2021/10/18 12:42:09;;;;;;;4.78;1.90;;;;;;;15.93;52.93;101620.53;5014861;28;20052;-81
2021/10/18 12:44:44;;;;;;;10.32;2.03;;;;;;;15.82;53.24;101619.53;5010711;28;20041;-79
2021/10/18 12:47:19;;;;;;;6.72;2.03;;;;;;;15.69;53.12;101619.47;5011797;28;20046;-79
2021/10/18 12:49:53;;;;;;;6.93;2.03;;;;;;;15.68;53.56;101617.78;4988853;28;20041;-82